Time;durP1;ratioP1;P1;durP2;ratioP2;P2;SDS_P1;SDS_P2;PMS_P1;PMS_P2;Temp;Humidity;BMP_temperature;BMP_pressure;BME280_temperature;BME280_humidity;BME280_pressure;Samples;Min_cycle;Max_cycle;Signal;HPM_P1;HPM_P2
2022/12/01 00:01:00;;;;;;;2.47;0.80;;;;;;;22.41;38.47;100941.00;21079297;28;20040;-62
2022/12/01 00:11:07;;;;;;;1.20;0.75;;;;;;;22.43;38.55;100972.22;21078042;28;20549;-63
2022/12/01 00:21:15;;;;;;;1.48;0.60;;;;;;;22.37;38.12;101001.28;21029777;28;20044;-63
2022/12/01 00:31:16;;;;;;;;;;;;;;;22.43;38.42;101028.81;21071367;28;20036;-64
2022/12/01 00:41:18;;;;;;;1.70;0.45;;;;;;;22.46;38.06;101060.88;21051638;28;19949;-63
2022/12/01 00:51:19;;;;;;;2.95;1.33;;;;;;;22.46;38.16;101088.75;21047088;28;20043;-64
2022/12/01 01:01:20;;;;;;;3.45;1.10;;;;;;;22.50;37.89;101106.59;21067868;28;20089;-65
2022/12/01 01:11:25;;;;;;;6.43;1.75;;;;;;;22.43;38.11;101112.47;21048240;28;20036;-65
2022/12/01 01:21:27;;;;;;;3.40;1.02;;;;;;;22.58;37.59;101158.94;21026284;28;20048;-64
2022/12/01 01:31:29;;;;;;;5.97;1.17;;;;;;;22.63;37.90;101181.22;21054165;28;20035;-64
2022/12/01 01:41:31;;;;;;;4.15;1.05;;;;;;;22.58;37.97;101164.53;21056885;28;20097;-64
2022/12/01 01:51:42;;;;;;;4.57;0.90;;;;;;;22.72;37.36;101176.72;21071788;28;20044;-64
2022/12/01 02:01:55;;;;;;;5.28;1.35;;;;;;;22.74;37.54;101199.59;21071260;28;20052;-65
2022/12/01 02:12:31;;;;;;;3.63;1.10;;;;;;;22.61;37.42;101185.44;21072286;28;20035;-65
2022/12/01 02:22:57;;;;;;;3.83;1.27;;;;;;;22.75;37.23;101219.97;21090067;28;20040;-65
2022/12/01 02:33:20;;;;;;;3.83;0.85;;;;;;;22.81;37.23;101229.97;21088299;28;20565;-65
2022/12/01 02:43:26;;;;;;;8.90;1.55;;;;;;;22.80;37.13;101234.72;21091304;28;20097;-66
2022/12/01 02:53:30;;;;;;;2.45;0.98;;;;;;;22.84;37.42;101258.13;21062338;28;20474;-65
2022/12/01 03:03:57;;;;;;;5.60;0.90;;;;;;;22.75;37.68;101253.44;21087158;28;20043;-65
2022/12/01 03:14:04;;;;;;;6.38;0.95;;;;;;;22.85;37.94;101270.13;21085752;28;20467;-66
2022/12/01 03:24:20;;;;;;;3.67;1.30;;;;;;;22.79;37.70;101288.84;21085007;28;20036;-65
2022/12/01 03:34:39;;;;;;;3.92;1.20;;;;;;;22.77;37.77;101299.47;21075502;28;20051;-64
2022/12/01 03:44:46;;;;;;;3.97;0.90;;;;;;;22.75;37.93;101303.66;21083134;28;20094;-65
2022/12/01 03:55:19;;;;;;;4.27;0.70;;;;;;;22.70;37.52;101312.06;21081375;28;20047;-65
2022/12/01 04:05:21;;;;;;;2.05;0.90;;;;;;;22.72;37.36;101352.47;21051837;28;20487;-65
2022/12/01 04:15:22;;;;;;;6.35;1.10;;;;;;;22.68;37.65;101373.72;21074328;28;20121;-65
2022/12/01 04:25:23;;;;;;;2.20;0.93;;;;;;;22.65;37.23;101388.22;21020460;28;20033;-66
2022/12/01 04:35:24;;;;;;;1.75;0.65;;;;;;;22.30;37.50;101364.00;21004928;28;20487;-66
2022/12/01 04:45:26;;;;;;;1.27;0.77;;;;;;;22.57;37.28;101430.63;21078699;28;20156;-65
2022/12/01 04:55:27;;;;;;;1.30;0.70;;;;;;;22.48;37.09;101444.28;21041917;28;20395;-65
2022/12/01 05:05:29;;;;;;;0.82;0.70;;;;;;;22.32;37.25;101446.25;21059341;28;20093;-65
2022/12/01 05:15:31;;;;;;;2.58;0.50;;;;;;;22.36;37.15;101479.13;21034455;28;20102;-65
2022/12/01 05:25:39;;;;;;;1.17;0.75;;;;;;;22.44;36.92;101503.69;20996407;28;20391;-66
2022/12/01 05:35:41;;;;;;;2.47;0.60;;;;;;;22.41;36.83;101521.00;21076477;28;20544;-65
2022/12/01 05:45:42;;;;;;;1.05;0.60;;;;;;;22.17;36.82;101513.13;21078380;28;20058;-65
2022/12/01 05:55:44;;;;;;;1.63;0.68;;;;;;;22.32;36.74;101563.38;21089783;28;20036;-65
2022/12/01 06:05:45;;;;;;;1.45;0.70;;;;;;;22.27;37.18;101577.28;21088270;28;20047;-65
2022/12/01 06:15:56;;;;;;;1.13;0.50;;;;;;;22.22;36.76;101591.22;21087432;28;20040;-64
2022/12/01 06:25:57;;;;;;;0.60;0.60;;;;;;;22.21;36.81;101609.03;21088950;28;20052;-64
2022/12/01 06:36:01;;;;;;;0.88;0.60;;;;;;;22.19;37.01;101611.28;21086186;28;20384;-65
2022/12/01 06:46:06;;;;;;;0.57;0.50;;;;;;;22.15;36.87;101626.88;21088740;28;20040;-66
2022/12/01 06:56:07;;;;;;;1.05;0.88;;;;;;;22.13;36.79;101647.75;21086186;28;20080;-64
2022/12/01 07:06:16;;;;;;;0.85;0.50;;;;;;;22.11;36.45;101661.09;21086724;28;20052;-64
2022/12/01 07:16:21;;;;;;;0.68;0.50;;;;;;;22.06;36.79;101687.00;21080519;28;20052;-65
2022/12/01 07:26:22;;;;;;;0.40;0.40;;;;;;;22.03;36.79;101699.50;21081129;28;20031;-65
2022/12/01 07:36:26;;;;;;;1.40;0.70;;;;;;;21.98;36.45;101715.38;21078797;28;20048;-65
2022/12/01 07:46:27;;;;;;;0.63;0.63;;;;;;;21.97;36.21;101747.13;21077913;28;20044;-65
2022/12/01 07:56:30;;;;;;;1.25;0.60;;;;;;;21.87;36.21;101739.56;21077391;28;20032;-65
2022/12/01 08:06:34;;;;;;;0.40;0.40;;;;;;;21.89;36.20;101770.75;21073539;28;20105;-65
2022/12/01 08:16:35;;;;;;;0.65;0.50;;;;;;;21.77;36.41;101768.19;21075309;28;20044;-65
2022/12/01 08:26:37;;;;;;;0.95;0.88;;;;;;;21.86;36.45;101810.34;21079543;28;20040;-65
2022/12/01 08:36:39;;;;;;;0.40;0.40;;;;;;;21.82;36.39;101810.00;21074387;28;20910;-65
2022/12/01 08:46:40;;;;;;;0.50;0.50;;;;;;;21.81;36.07;101829.78;21075368;28;20044;-65
2022/12/01 08:56:43;;;;;;;0.40;0.40;;;;;;;21.78;36.33;101847.88;21076663;28;20044;-65
2022/12/01 09:06:52;;;;;;;0.50;0.50;;;;;;;21.57;36.28;101834.84;21070667;28;20039;-65
2022/12/01 09:17:03;;;;;;;0.57;0.52;;;;;;;21.51;35.97;101855.41;21078814;28;20044;-65
2022/12/01 09:27:04;;;;;;;0.82;0.40;;;;;;;21.69;35.87;101921.88;21079133;28;20040;-66
2022/12/01 09:37:08;;;;;;;0.45;0.40;;;;;;;21.67;35.95;101940.81;21069560;28;20047;-65
2022/12/01 09:47:19;;;;;;;0.45;0.43;;;;;;;21.63;36.03;101941.59;21069940;28;20479;-65
2022/12/01 09:57:32;;;;;;;0.43;0.43;;;;;;;21.49;35.90;101927.25;21069905;28;20489;-65
2022/12/01 10:07:50;;;;;;;0.55;0.50;;;;;;;21.56;36.00;101980.78;21068631;28;20044;-64
2022/12/01 10:17:57;;;;;;;0.63;0.40;;;;;;;21.55;36.03;102018.09;21071237;28;20044;-65
2022/12/01 10:28:11;;;;;;;0.63;0.43;;;;;;;21.49;35.94;102022.78;21068530;28;20090;-64
2022/12/01 10:38:21;;;;;;;0.60;0.50;;;;;;;21.44;35.99;102053.34;21085345;28;20483;-65
2022/12/01 10:48:22;;;;;;;0.43;0.40;;;;;;;21.44;35.99;102080.31;21087010;28;20032;-66
2022/12/01 10:58:28;;;;;;;0.30;0.30;;;;;;;21.41;35.67;102080.84;21083051;28;20055;-64
2022/12/01 11:08:37;;;;;;;0.82;0.40;;;;;;;21.24;35.77;102097.53;21080524;28;20028;-64
2022/12/01 11:18:41;;;;;;;0.40;0.40;;;;;;;21.36;35.82;102148.44;21062430;28;20044;-65
2022/12/01 11:29:32;;;;;;;0.40;0.40;;;;;;;21.27;35.85;102181.41;21084325;28;20565;-64
2022/12/01 11:39:37;;;;;;;1.07;0.60;;;;;;;21.31;35.16;102190.97;21076104;28;20048;-64
2022/12/01 11:49:44;;;;;;;4.38;0.80;;;;;;;21.30;35.63;102224.59;21056404;28;20107;-66
2022/12/01 11:59:46;;;;;;;1.80;0.77;;;;;;;21.27;35.39;102259.34;21049931;28;20046;-67
2022/12/01 12:09:53;;;;;;;3.88;1.08;;;;;;;21.24;35.40;102306.34;21023790;28;20028;-66
2022/12/01 12:20:18;;;;;;;7.07;0.82;;;;;;;21.05;35.21;102302.94;21007181;28;20061;-66
2022/12/01 12:30:28;;;;;;;2.00;0.65;;;;;;;21.10;35.33;102347.56;21009144;28;20560;-67
2022/12/01 12:40:53;;;;;;;1.65;0.55;;;;;;;21.15;35.65;102383.00;21031951;28;20044;-66
2022/12/01 12:51:21;;;;;;;1.30;0.75;;;;;;;21.16;35.67;102385.53;20994978;28;20549;-66
2022/12/01 13:01:45;;;;;;;0.90;0.50;;;;;;;21.13;35.45;102408.31;20994166;28;20041;-65
2022/12/01 13:11:56;;;;;;;1.83;0.70;;;;;;;21.14;35.22;102418.34;20993585;28;20094;-66
2022/12/01 13:21:59;;;;;;;1.98;0.70;;;;;;;21.10;34.97;102431.06;20993168;28;20114;-66
2022/12/01 13:32:02;;;;;;;1.88;0.60;;;;;;;21.07;34.81;102442.66;20992511;28;20068;-66
2022/12/01 13:42:25;;;;;;;0.93;0.50;;;;;;;20.97;34.94;102470.28;20993333;28;20078;-66
2022/12/01 13:52:30;;;;;;;1.15;0.80;;;;;;;21.02;34.75;102498.22;20991841;28;20044;-66
2022/12/01 14:03:09;;;;;;;2.05;0.60;;;;;;;20.98;34.55;102510.94;20991736;28;20040;-66
2022/12/01 14:13:21;;;;;;;0.70;0.50;;;;;;;21.02;34.46;102520.50;21004495;28;20040;-66
2022/12/01 14:23:32;;;;;;;1.10;0.60;;;;;;;21.01;34.77;102546.63;21006447;28;20037;-65
2022/12/01 14:33:52;;;;;;;0.77;0.50;;;;;;;21.00;34.46;102547.75;21005374;28;20074;-65
2022/12/01 14:44:05;;;;;;;1.23;0.85;;;;;;;20.96;34.48;102569.63;21005167;28;20548;-65
2022/12/01 14:54:19;;;;;;;1.33;0.80;;;;;;;20.96;34.89;102602.19;21004169;28;20043;-65
2022/12/01 15:04:20;;;;;;;3.65;0.73;;;;;;;20.96;35.11;102622.50;21003359;28;20114;-65
2022/12/01 15:14:27;;;;;;;1.35;0.73;;;;;;;20.95;34.59;102634.72;21003562;28;20106;-65
2022/12/01 15:24:29;;;;;;;1.10;0.50;;;;;;;20.52;34.63;102593.28;21001334;28;20434;-65
2022/12/01 15:34:48;;;;;;;1.23;0.70;;;;;;;20.77;34.51;102638.44;21001795;28;20041;-65
2022/12/01 15:45:11;;;;;;;0.85;0.70;;;;;;;20.87;34.19;102668.47;21000197;28;20376;-66
2022/12/01 15:55:26;;;;;;;2.22;0.70;;;;;;;20.80;34.49;102638.00;20999502;28;20040;-66
2022/12/01 16:05:37;;;;;;;0.65;0.50;;;;;;;20.73;34.50;102631.66;20999353;28;20041;-66
2022/12/01 16:15:42;;;;;;;1.10;0.75;;;;;;;20.72;34.83;102632.75;20998107;28;20155;-65
2022/12/01 16:25:47;;;;;;;0.57;0.47;;;;;;;20.62;34.66;102623.28;20997630;28;20036;-65
2022/12/01 16:35:52;;;;;;;0.65;0.50;;;;;;;20.66;34.81;102635.63;20995241;28;20071;-65
2022/12/01 16:46:02;;;;;;;0.63;0.60;;;;;;;20.63;34.81;102636.97;20995796;28;20040;-65
2022/12/01 16:56:10;;;;;;;0.85;0.63;;;;;;;20.52;34.43;102612.75;20994855;28;20041;-65
2022/12/01 17:06:18;;;;;;;0.83;0.80;;;;;;;20.58;34.91;102622.94;20994294;28;20024;-65
2022/12/01 17:16:20;;;;;;;1.00;0.50;;;;;;;20.58;34.91;102617.38;20993705;28;20052;-65
2022/12/01 17:26:24;;;;;;;0.30;0.30;;;;;;;20.54;34.66;102610.59;20992345;28;20091;-65
2022/12/01 17:36:25;;;;;;;0.50;0.40;;;;;;;20.55;34.86;102628.97;20991269;28;20040;-65
2022/12/01 17:46:26;;;;;;;1.20;0.63;;;;;;;20.56;34.78;102647.34;21004116;28;20083;-65
2022/12/01 17:56:27;;;;;;;0.40;0.30;;;;;;;20.51;34.58;102655.56;21009080;28;20426;-66
2022/12/01 18:06:32;;;;;;;0.80;0.40;;;;;;;20.37;34.86;102648.47;21008480;28;20078;-66
2022/12/01 18:16:33;;;;;;;0.50;0.50;;;;;;;20.52;34.71;102671.16;21007362;28;20048;-66
2022/12/01 18:26:36;;;;;;;0.90;0.40;;;;;;;20.48;34.60;102656.00;21004065;28;20101;-66
2022/12/01 18:36:39;;;;;;;0.88;0.50;;;;;;;20.45;34.77;102650.91;21006070;28;20032;-66
2022/12/01 18:46:43;;;;;;;0.80;0.70;;;;;;;20.47;34.96;102676.53;21004505;28;20462;-66
2022/12/01 18:56:45;;;;;;;0.45;0.45;;;;;;;20.45;34.46;102695.41;21001759;28;20098;-66
2022/12/01 19:06:46;;;;;;;0.75;0.50;;;;;;;20.41;34.48;102696.97;21003958;28;20037;-66
2022/12/01 19:16:48;;;;;;;0.80;0.50;;;;;;;20.42;34.65;102701.44;21001496;28;20438;-64
2022/12/01 19:26:49;;;;;;;0.70;0.63;;;;;;;20.41;34.58;102713.66;21002257;28;20049;-64
2022/12/01 19:36:52;;;;;;;1.02;0.50;;;;;;;20.40;34.35;102714.72;21000016;28;20533;-65
2022/12/01 19:46:56;;;;;;;0.55;0.55;;;;;;;20.40;34.77;102732.25;20999964;28;20048;-65
2022/12/01 19:56:58;;;;;;;1.95;0.50;;;;;;;20.35;34.54;102742.41;21002979;28;20036;-65
2022/12/01 20:06:59;;;;;;;0.68;0.50;;;;;;;20.34;34.29;102771.25;21003988;28;20036;-65
2022/12/01 20:17:03;;;;;;;0.50;0.50;;;;;;;20.31;34.60;102790.13;20998450;28;20041;-66
2022/12/01 20:27:04;;;;;;;0.85;0.60;;;;;;;20.30;34.58;102801.47;20997348;28;20146;-65
2022/12/01 20:37:05;;;;;;;0.95;0.70;;;;;;;20.27;34.54;102807.50;20996243;28;20041;-66
2022/12/01 20:47:07;;;;;;;0.75;0.60;;;;;;;20.26;34.47;102820.53;20999186;28;20054;-63
2022/12/01 20:57:08;;;;;;;1.00;0.52;;;;;;;20.22;34.20;102840.69;20997282;28;20041;-64
2022/12/01 21:07:09;;;;;;;0.52;0.52;;;;;;;20.20;34.43;102829.78;20994674;28;20037;-65
2022/12/01 21:17:28;;;;;;;0.70;0.57;;;;;;;20.12;34.21;102874.59;20992881;28;20044;-65
2022/12/01 21:27:29;;;;;;;1.13;0.70;;;;;;;20.19;34.34;102891.19;20993359;28;20110;-65
2022/12/01 21:37:33;;;;;;;1.08;0.47;;;;;;;20.11;34.32;102895.09;21040345;28;20603;-65
2022/12/01 21:47:34;;;;;;;2.58;0.82;;;;;;;20.20;34.56;102932.63;21075761;28;20039;-65
2022/12/01 21:57:47;;;;;;;0.50;0.50;;;;;;;20.22;34.19;102935.22;21075024;28;20121;-65
2022/12/01 22:07:48;;;;;;;1.17;0.80;;;;;;;20.18;33.88;102957.06;21054543;28;20069;-65
2022/12/01 22:17:49;;;;;;;0.95;0.60;;;;;;;20.22;33.94;102980.53;21054006;28;22727;-65
2022/12/01 22:27:51;;;;;;;0.80;0.80;;;;;;;20.28;34.00;103004.66;21064417;28;20082;-64
2022/12/01 22:37:58;;;;;;;0.63;0.63;;;;;;;20.30;33.93;102996.09;21080857;28;20032;-65
2022/12/01 22:48:01;;;;;;;1.35;0.70;;;;;;;20.32;34.12;103030.06;21080887;28;20491;-65
2022/12/01 22:58:33;;;;;;;9.52;0.98;;;;;;;20.28;34.15;103017.69;21066874;28;20078;-65
2022/12/01 23:08:35;;;;;;;4.38;1.20;;;;;;;20.35;34.00;103026.00;21068640;28;20084;-64
2022/12/01 23:18:39;;;;;;;5.47;1.90;;;;;;;20.39;34.47;103032.78;21073750;28;20040;-63
2022/12/01 23:28:40;;;;;;;4.32;1.58;;;;;;;20.44;35.09;103055.22;21074525;28;20036;-64
2022/12/01 23:38:44;;;;;;;4.03;1.40;;;;;;;20.48;35.11;103031.44;21079735;28;20475;-62
2022/12/01 23:49:06;;;;;;;7.80;1.50;;;;;;;20.53;34.78;103048.34;21075910;28;20044;-65
2022/12/01 23:59:12;;;;;;;5.35;1.40;;;;;;;20.65;34.97;103040.94;21075999;28;20078;-64
